createdAt,value
2023-08-12T00:00:47.490Z,70.01
2023-08-12T00:03:15.098Z,68.72
2023-08-12T00:05:44.312Z,68.59
2023-08-12T00:08:11.644Z,67.87
2023-08-12T00:10:39.065Z,69.28
2023-08-12T00:13:06.377Z,69.42
2023-08-12T00:15:34.561Z,70.19
2023-08-12T00:18:02.274Z,69.60
2023-08-12T00:20:29.701Z,70.16
2023-08-12T00:22:57.042Z,71.14
2023-08-12T00:25:24.296Z,71.57
2023-08-12T00:27:51.602Z,71.98
2023-08-12T00:30:19.052Z,72.12
2023-08-12T00:32:46.398Z,72.42
2023-08-12T00:35:13.684Z,72.08
2023-08-12T00:37:42.087Z,72.38
2023-08-12T00:40:11.211Z,71.54
2023-08-12T00:42:39.160Z,71.24
2023-08-12T00:45:11.710Z,71.51
2023-08-12T00:47:39.240Z,72.50
2023-08-12T00:50:09.550Z,73.41
2023-08-12T00:52:36.992Z,73.92
2023-08-12T00:55:04.770Z,74.12
2023-08-12T00:57:32.178Z,74.60
2023-08-12T01:00:00.595Z,73.44
2023-08-12T01:02:30.291Z,74.03
2023-08-12T01:04:57.650Z,73.90
2023-08-12T01:07:25.048Z,74.64
2023-08-12T01:09:52.526Z,73.24
2023-08-12T01:12:28.576Z,71.94
2023-08-12T01:15:16.251Z,72.91
2023-08-12T01:17:45.583Z,73.00
2023-08-12T01:20:16.675Z,74.03
2023-08-12T01:22:46.360Z,74.75
2023-08-12T01:25:13.665Z,75.10
2023-08-12T01:27:40.929Z,75.80
2023-08-12T01:30:12.140Z,76.86
2023-08-12T01:33:01.224Z,78.18
2023-08-12T01:35:38.264Z,78.18
2023-08-12T01:38:09.654Z,78.44
2023-08-12T01:40:39.785Z,78.33
2023-08-12T01:43:09.295Z,78.68
2023-08-12T01:45:37.259Z,77.90
2023-08-12T01:48:05.130Z,78.46
2023-08-12T01:50:32.495Z,78.55
2023-08-12T01:52:59.883Z,78.73
2023-08-12T01:55:27.891Z,78.46
2023-08-12T01:57:56.792Z,78.32
2023-08-12T02:00:24.314Z,78.93
2023-08-12T02:02:51.772Z,79.02
2023-08-12T02:05:19.315Z,79.14
2023-08-12T02:07:46.621Z,79.40
2023-08-12T02:10:16.027Z,79.70
2023-08-12T02:12:43.702Z,79.89
2023-08-12T02:15:11.321Z,79.32
2023-08-12T02:17:40.589Z,79.81
2023-08-12T02:20:09.255Z,79.94
2023-08-12T02:22:36.595Z,80.69
2023-08-12T02:25:04.681Z,80.25
2023-08-12T02:27:32.174Z,79.91
2023-08-12T02:29:59.541Z,80.29
2023-08-12T02:32:28.500Z,80.13
2023-08-12T02:34:55.894Z,79.32
2023-08-12T02:37:23.183Z,78.38
2023-08-12T02:39:50.409Z,78.39
2023-08-12T02:42:17.688Z,78.17
2023-08-12T02:44:44.974Z,77.34
2023-08-12T02:47:12.521Z,76.74
2023-08-12T02:49:40.014Z,77.08
2023-08-12T02:52:07.466Z,77.39
2023-08-12T02:54:34.736Z,77.77
2023-08-12T02:57:02.052Z,77.37
2023-08-12T02:59:31.192Z,76.77
2023-08-12T03:01:58.602Z,76.64
2023-08-12T03:04:25.997Z,76.97
2023-08-12T03:06:54.058Z,76.83
2023-08-12T03:09:21.465Z,76.73
2023-08-12T03:11:49.622Z,76.67
2023-08-12T03:14:17.446Z,77.10
2023-08-12T03:16:44.766Z,76.77
2023-08-12T03:19:12.031Z,77.91
2023-08-12T03:21:39.761Z,79.03
2023-08-12T03:24:07.434Z,80.04
2023-08-12T03:26:34.765Z,79.93
2023-08-12T03:29:02.367Z,80.72
2023-08-12T03:31:30.019Z,81.10
2023-08-12T03:33:58.226Z,80.90
2023-08-12T03:36:25.663Z,80.29
2023-08-12T03:38:53.076Z,79.25
2023-08-12T03:41:25.380Z,79.74
2023-08-12T03:43:54.093Z,80.14
2023-08-12T03:46:21.768Z,81.20
2023-08-12T03:48:49.520Z,80.61
2023-08-12T03:51:16.874Z,79.68
2023-08-12T03:53:44.721Z,79.88
2023-08-12T03:56:16.071Z,80.23
2023-08-12T03:58:46.784Z,79.63
2023-08-12T04:01:14.471Z,79.63
2023-08-12T04:03:41.901Z,80.35
2023-08-12T04:06:09.575Z,79.65
2023-08-12T04:08:36.952Z,80.17
2023-08-12T04:11:04.277Z,78.80
2023-08-12T04:13:31.770Z,79.61
2023-08-12T04:15:59.076Z,80.07
2023-08-12T04:18:26.846Z,80.94
2023-08-12T04:20:54.722Z,80.42
2023-08-12T04:23:22.601Z,80.25
2023-08-12T04:25:51.088Z,80.63
2023-08-12T04:28:20.440Z,80.49
2023-08-12T04:30:54.088Z,79.42
2023-08-12T04:33:23.074Z,79.38
2023-08-12T04:35:51.447Z,80.50
2023-08-12T04:38:19.661Z,79.22
2023-08-12T04:40:50.214Z,78.11
2023-08-12T04:43:18.350Z,79.13
2023-08-12T04:45:49.722Z,80.40
2023-08-12T04:48:20.184Z,80.69
2023-08-12T04:50:47.592Z,81.16
2023-08-12T04:53:15.067Z,80.66
2023-08-12T04:55:44.485Z,79.99
2023-08-12T04:58:13.331Z,78.86
2023-08-12T05:00:40.852Z,78.71
2023-08-12T05:03:09.720Z,78.83
2023-08-12T05:05:37.559Z,78.20
2023-08-12T05:08:05.325Z,79.44
2023-08-12T05:10:34.112Z,79.10
2023-08-12T05:13:02.244Z,78.65
2023-08-12T05:15:29.628Z,78.54
2023-08-12T05:17:57.101Z,78.88
2023-08-12T05:20:24.645Z,78.43
2023-08-12T05:22:51.947Z,79.50
2023-08-12T05:25:19.253Z,79.56
2023-08-12T05:27:46.893Z,79.31
2023-08-12T05:30:16.518Z,78.99
2023-08-12T05:32:43.859Z,78.59
2023-08-12T05:35:12.536Z,76.74
2023-08-12T05:37:39.895Z,77.61
2023-08-12T05:40:09.696Z,75.91
2023-08-12T05:42:38.026Z,73.62
2023-08-12T05:45:08.589Z,73.16
2023-08-12T05:47:36.628Z,72.83
2023-08-12T05:50:05.420Z,71.52
2023-08-12T05:52:33.494Z,71.43
2023-08-12T05:55:00.846Z,69.94
2023-08-12T05:57:29.816Z,69.08
2023-08-12T05:59:57.712Z,67.61
2023-08-12T06:02:27.852Z,67.97
2023-08-12T06:04:55.335Z,67.09
2023-08-12T06:07:24.421Z,69.69
2023-08-12T06:09:52.160Z,69.65
2023-08-12T06:12:19.568Z,69.37
2023-08-12T06:14:46.846Z,70.00
2023-08-12T06:17:14.189Z,70.72
2023-08-12T06:19:41.522Z,69.15
2023-08-12T06:22:08.973Z,68.72
2023-08-12T06:24:37.024Z,66.94
2023-08-12T06:27:04.643Z,62.78
2023-08-12T06:29:32.470Z,62.26
2023-08-12T06:31:59.988Z,63.77
2023-08-12T06:34:27.330Z,62.01
2023-08-12T06:36:54.614Z,62.06
2023-08-12T06:39:23.094Z,61.24
2023-08-12T06:41:53.613Z,61.13
2023-08-12T06:44:21.000Z,61.21
2023-08-12T06:46:49.591Z,60.19
2023-08-12T06:49:17.120Z,58.29
2023-08-12T06:51:44.502Z,58.10
2023-08-12T06:54:11.973Z,57.47
2023-08-12T06:56:39.340Z,56.45
2023-08-12T06:59:06.778Z,55.35
2023-08-12T07:01:34.301Z,54.74
2023-08-12T07:04:01.905Z,55.30
2023-08-12T07:06:29.363Z,53.15
2023-08-12T07:08:57.315Z,52.27
2023-08-12T07:11:24.890Z,53.38
2023-08-12T07:13:52.303Z,52.34
2023-08-12T07:16:19.744Z,53.00
2023-08-12T07:18:47.191Z,52.48
2023-08-12T07:21:14.555Z,50.97
2023-08-12T07:23:44.144Z,52.23
2023-08-12T07:26:19.146Z,51.38
2023-08-12T07:28:46.639Z,50.29
2023-08-12T07:31:14.413Z,50.59
2023-08-12T07:33:44.110Z,48.54
2023-08-12T07:36:12.950Z,49.08
2023-08-12T07:38:42.434Z,48.83
2023-08-12T07:41:09.911Z,49.04
2023-08-12T07:43:40.417Z,48.66
2023-08-12T07:46:09.897Z,49.04
2023-08-12T07:48:39.414Z,48.24
2023-08-12T07:51:07.046Z,48.09
2023-08-12T07:53:35.010Z,47.08
2023-08-12T07:56:02.406Z,46.65
2023-08-12T07:58:29.817Z,45.00
2023-08-12T08:00:57.233Z,45.45
2023-08-12T08:03:24.644Z,45.80
2023-08-12T08:05:53.109Z,45.30
2023-08-12T08:08:21.447Z,44.29
2023-08-12T08:10:48.973Z,42.66
2023-08-12T08:13:16.334Z,41.99
2023-08-12T08:15:43.737Z,42.06
2023-08-12T08:18:11.423Z,43.78
2023-08-12T08:20:39.010Z,41.44
2023-08-12T08:23:06.869Z,39.90
2023-08-12T08:25:37.052Z,40.28
2023-08-12T08:28:04.746Z,41.84
2023-08-12T08:30:32.222Z,40.95
2023-08-12T08:32:59.968Z,40.63
2023-08-12T08:35:27.682Z,40.35
2023-08-12T08:37:55.326Z,40.51
2023-08-12T08:40:22.896Z,38.76
2023-08-12T08:42:54.745Z,40.39
2023-08-12T08:45:24.571Z,39.31
2023-08-12T08:47:54.344Z,40.03
2023-08-12T08:50:23.151Z,38.88
2023-08-12T08:52:58.868Z,38.19
2023-08-12T08:55:26.482Z,36.88
2023-08-12T08:58:02.241Z,37.34
2023-08-12T09:00:30.782Z,35.18
2023-08-12T09:03:01.827Z,36.61
2023-08-12T09:05:31.491Z,36.94
2023-08-12T09:08:00.808Z,34.75
2023-08-12T09:10:30.100Z,35.98
2023-08-12T09:13:01.211Z,35.26
2023-08-12T09:15:30.874Z,35.74
2023-08-12T09:17:58.340Z,34.79
2023-08-12T09:20:26.140Z,34.17
2023-08-12T09:23:00.159Z,33.95
2023-08-12T09:25:32.031Z,33.92
2023-08-12T09:28:02.979Z,34.05
2023-08-12T09:30:34.855Z,34.05
2023-08-12T09:33:05.284Z,33.57
2023-08-12T09:35:36.260Z,33.01
2023-08-12T09:38:12.390Z,34.35
2023-08-12T09:40:41.731Z,33.31
2023-08-12T09:43:10.306Z,33.52
2023-08-12T09:45:38.433Z,33.74
2023-08-12T09:48:09.177Z,33.25
2023-08-12T09:50:38.093Z,33.77
2023-08-12T09:53:13.945Z,33.91
2023-08-12T09:55:42.879Z,32.17
2023-08-12T09:58:12.861Z,32.21
2023-08-12T10:00:43.857Z,33.18
2023-08-12T10:03:15.758Z,33.33
2023-08-12T10:05:43.871Z,33.07
2023-08-12T10:08:12.625Z,32.24
2023-08-12T10:10:41.277Z,33.29
2023-08-12T10:13:08.984Z,31.75
2023-08-12T10:15:37.062Z,31.36
2023-08-12T10:18:09.619Z,32.17
2023-08-12T10:20:39.773Z,32.59
2023-08-12T10:23:08.528Z,32.49
2023-08-12T10:25:39.215Z,33.99
2023-08-12T10:28:06.872Z,32.78
2023-08-12T10:30:36.496Z,32.30
2023-08-12T10:33:04.812Z,32.45
2023-08-12T10:35:48.350Z,29.61
2023-08-12T10:38:19.292Z,30.63
2023-08-12T10:40:47.046Z,32.37
2023-08-12T10:43:19.034Z,32.68
2023-08-12T10:45:51.236Z,31.03
2023-08-12T10:48:24.514Z,31.34
2023-08-12T10:51:00.153Z,29.41
2023-08-12T10:53:33.405Z,29.30
2023-08-12T10:56:06.382Z,28.14
2023-08-12T10:58:36.225Z,29.25
2023-08-12T11:01:04.511Z,28.92
2023-08-12T11:03:38.918Z,28.04
2023-08-12T11:06:10.133Z,27.91
2023-08-12T11:08:37.739Z,29.17
2023-08-12T11:11:22.268Z,29.42
2023-08-12T11:14:02.041Z,29.29
2023-08-12T11:16:37.138Z,29.37
2023-08-12T11:19:05.374Z,28.16
2023-08-12T11:21:32.997Z,29.09
2023-08-12T11:24:02.351Z,29.29
2023-08-12T11:26:35.842Z,29.14
2023-08-12T11:29:11.593Z,30.16
2023-08-12T11:31:39.858Z,30.83
2023-08-12T11:34:08.684Z,29.63
2023-08-12T11:36:36.413Z,29.94
2023-08-12T11:39:06.074Z,28.21
2023-08-12T11:41:37.000Z,28.24
2023-08-12T11:44:05.993Z,29.73
2023-08-12T11:46:38.617Z,30.04
2023-08-12T11:49:09.374Z,30.07
2023-08-12T11:51:42.752Z,30.34
2023-08-12T11:54:11.484Z,30.08
2023-08-12T11:56:39.601Z,30.26
2023-08-12T11:59:08.583Z,30.26
2023-08-12T12:01:36.420Z,29.82
2023-08-12T12:04:04.844Z,30.37
2023-08-12T12:06:38.461Z,30.90
2023-08-12T12:09:11.038Z,30.63
2023-08-12T12:11:39.590Z,28.63
2023-08-12T12:14:09.344Z,29.58
2023-08-12T12:16:47.737Z,31.82
2023-08-12T12:19:19.357Z,31.94
2023-08-12T12:21:53.088Z,32.37
2023-08-12T12:24:23.688Z,31.58
2023-08-12T12:26:51.188Z,30.98
2023-08-12T12:29:18.652Z,30.71
2023-08-12T12:31:46.110Z,29.79
2023-08-12T12:34:15.551Z,29.40
2023-08-12T12:36:43.043Z,29.41
2023-08-12T12:39:10.478Z,28.68
2023-08-12T12:41:37.913Z,29.44
2023-08-12T12:44:05.627Z,28.46
2023-08-12T12:46:33.472Z,29.71
2023-08-12T12:49:00.857Z,29.06
2023-08-12T12:51:32.637Z,28.51
2023-08-12T12:53:59.991Z,29.75
2023-08-12T12:56:29.651Z,30.81
2023-08-12T12:58:57.987Z,27.68
2023-08-12T13:01:25.948Z,28.81
2023-08-12T13:03:56.365Z,29.63
2023-08-12T13:06:25.370Z,29.05
2023-08-12T13:08:55.685Z,29.11
2023-08-12T13:11:23.088Z,27.16
2023-08-12T13:13:50.669Z,27.04
2023-08-12T13:16:18.450Z,26.83
2023-08-12T13:18:46.793Z,26.66
2023-08-12T13:21:16.981Z,27.03
2023-08-12T13:23:50.821Z,26.81
2023-08-12T13:26:19.284Z,27.32
2023-08-12T13:28:50.674Z,29.19
2023-08-12T13:31:18.313Z,28.80
2023-08-12T13:33:46.231Z,28.13
2023-08-12T13:36:16.540Z,28.32
2023-08-12T13:38:43.931Z,29.70
2023-08-12T13:41:12.377Z,28.77
2023-08-12T13:43:42.259Z,30.62
2023-08-12T13:46:09.878Z,29.51
2023-08-12T13:48:37.302Z,28.83
2023-08-12T13:51:05.168Z,28.16
2023-08-12T13:53:32.450Z,28.64
2023-08-12T13:55:59.860Z,29.51
2023-08-12T13:58:27.215Z,28.88
2023-08-12T14:00:54.747Z,30.49
2023-08-12T14:03:22.235Z,31.40
2023-08-12T14:05:49.607Z,30.44
2023-08-12T14:08:18.392Z,31.00
2023-08-12T14:10:48.740Z,29.98
2023-08-12T14:13:16.441Z,29.96
2023-08-12T14:15:43.964Z,29.07
2023-08-12T14:18:11.361Z,29.28
2023-08-12T14:20:39.748Z,29.39
2023-08-12T14:23:07.172Z,29.74
2023-08-12T14:25:35.586Z,31.20
2023-08-12T14:28:03.492Z,31.33
2023-08-12T14:30:31.392Z,31.20
2023-08-12T14:33:00.293Z,31.53
2023-08-12T14:35:28.090Z,31.15
2023-08-12T14:37:55.440Z,31.90
2023-08-12T14:40:23.919Z,30.59
2023-08-12T14:42:51.232Z,31.02
2023-08-12T14:45:18.691Z,29.89
2023-08-12T14:47:47.210Z,30.33
2023-08-12T14:50:14.608Z,29.27
2023-08-12T14:52:41.955Z,29.82
2023-08-12T14:55:09.710Z,29.16
2023-08-12T14:57:37.114Z,30.15
2023-08-12T15:00:08.026Z,30.05
2023-08-12T15:02:35.523Z,30.66
2023-08-12T15:05:02.913Z,31.19
2023-08-12T15:07:32.163Z,30.73
2023-08-12T15:10:00.439Z,30.94
2023-08-12T15:12:29.080Z,30.29
2023-08-12T15:14:57.368Z,30.32
2023-08-12T15:17:26.149Z,30.24
2023-08-12T15:19:55.210Z,30.74
2023-08-12T15:22:22.827Z,30.41
2023-08-12T15:24:50.229Z,31.34
2023-08-12T15:27:17.690Z,31.40
2023-08-12T15:29:44.921Z,30.84
2023-08-12T15:32:13.306Z,31.70
2023-08-12T15:34:40.694Z,30.63
2023-08-12T15:37:11.252Z,30.61
2023-08-12T15:39:38.985Z,30.48
2023-08-12T15:42:07.741Z,31.16
2023-08-12T15:44:35.872Z,30.85
2023-08-12T15:47:03.176Z,31.60
2023-08-12T15:49:34.726Z,31.38
2023-08-12T15:52:02.492Z,31.05
2023-08-12T15:54:29.833Z,31.97
2023-08-12T15:56:57.775Z,31.82
2023-08-12T15:59:25.158Z,31.56
2023-08-12T16:01:52.640Z,31.41
2023-08-12T16:04:19.926Z,31.93
2023-08-12T16:06:47.248Z,31.56
2023-08-12T16:09:18.850Z,32.40
2023-08-12T16:11:47.055Z,32.14
2023-08-12T16:14:14.389Z,32.13
2023-08-12T16:16:42.241Z,32.66
2023-08-12T16:19:10.536Z,32.45
2023-08-12T16:21:38.654Z,33.17
2023-08-12T16:24:06.229Z,33.30
2023-08-12T16:26:33.479Z,32.81
2023-08-12T16:29:00.951Z,33.28
2023-08-12T16:31:32.544Z,33.37
2023-08-12T16:33:59.930Z,33.24
2023-08-12T16:36:27.324Z,32.94
2023-08-12T16:38:54.661Z,33.73
2023-08-12T16:41:22.175Z,34.02
2023-08-12T16:43:49.582Z,34.20
2023-08-12T16:46:16.925Z,34.44
2023-08-12T16:48:44.277Z,34.25
2023-08-12T16:51:11.567Z,34.23
2023-08-12T16:53:38.890Z,34.55
2023-08-12T16:56:06.329Z,35.00
2023-08-12T16:58:34.018Z,35.47
2023-08-12T17:01:01.483Z,35.61
2023-08-12T17:03:29.118Z,35.63
2023-08-12T17:05:56.468Z,36.15
2023-08-12T17:08:23.911Z,36.57
2023-08-12T17:10:51.209Z,37.36
2023-08-12T17:13:19.792Z,37.21
2023-08-12T17:15:47.540Z,37.88
2023-08-12T17:18:15.005Z,38.23
2023-08-12T17:20:43.801Z,39.21
2023-08-12T17:23:11.332Z,39.24
2023-08-12T17:25:38.745Z,39.21
2023-08-12T17:28:06.523Z,38.79
2023-08-12T17:30:36.448Z,39.23
2023-08-12T17:33:04.331Z,38.62
2023-08-12T17:35:33.871Z,38.63
2023-08-12T17:38:01.468Z,38.53
2023-08-12T17:40:28.861Z,39.08
2023-08-12T17:42:56.147Z,39.64
2023-08-12T17:45:23.489Z,40.07
2023-08-12T17:47:59.596Z,39.90
2023-08-12T17:50:28.796Z,39.35
2023-08-12T17:52:56.176Z,39.42
2023-08-12T17:55:24.524Z,40.10
2023-08-12T17:57:53.542Z,40.84
2023-08-12T18:00:22.958Z,40.65
2023-08-12T18:02:50.484Z,40.77
2023-08-12T18:05:18.201Z,40.86
2023-08-12T18:07:45.695Z,41.37
2023-08-12T18:10:13.219Z,41.40
2023-08-12T18:12:40.765Z,41.19
2023-08-12T18:15:08.941Z,41.53
2023-08-12T18:17:36.780Z,42.21
2023-08-12T18:20:07.088Z,42.22
2023-08-12T18:22:34.881Z,42.35
2023-08-12T18:25:02.244Z,42.71
2023-08-12T18:27:29.619Z,43.07
2023-08-12T18:29:57.666Z,43.23
2023-08-12T18:32:28.360Z,43.01
2023-08-12T18:34:56.847Z,43.27
2023-08-12T18:37:24.537Z,42.89
2023-08-12T18:39:51.991Z,42.57
2023-08-12T18:42:20.176Z,42.98
2023-08-12T18:44:47.498Z,42.78
2023-08-12T18:47:16.621Z,42.96
2023-08-12T18:49:44.945Z,43.20
2023-08-12T18:52:13.019Z,43.49
2023-08-12T18:54:41.876Z,44.18
2023-08-12T18:57:09.913Z,44.09
2023-08-12T18:59:37.668Z,45.33
2023-08-12T19:02:08.783Z,45.13
2023-08-12T19:04:36.262Z,45.72
2023-08-12T19:07:06.060Z,45.98
2023-08-12T19:09:34.948Z,46.50
2023-08-12T19:12:02.773Z,46.64
2023-08-12T19:14:30.187Z,46.61
2023-08-12T19:16:59.039Z,46.43
2023-08-12T19:19:26.628Z,46.18
2023-08-12T19:21:54.146Z,47.04
2023-08-12T19:24:25.160Z,47.41
2023-08-12T19:26:54.364Z,47.11
2023-08-12T19:29:24.678Z,47.79
2023-08-12T19:31:54.241Z,48.10
2023-08-12T19:34:21.594Z,48.35
2023-08-12T19:36:50.701Z,48.66
2023-08-12T19:39:19.229Z,48.88
2023-08-12T19:41:46.647Z,49.84
2023-08-12T19:44:14.217Z,49.04
2023-08-12T19:46:41.769Z,47.77
2023-08-12T19:49:09.823Z,48.20
2023-08-12T19:51:37.150Z,47.66
2023-08-12T19:54:05.097Z,47.85
2023-08-12T19:56:33.191Z,47.78
2023-08-12T19:59:00.439Z,47.91
2023-08-12T20:01:28.432Z,48.10
2023-08-12T20:03:56.691Z,48.38
2023-08-12T20:06:25.116Z,48.42
2023-08-12T20:08:52.441Z,48.54
2023-08-12T20:11:19.630Z,48.57
2023-08-12T20:13:46.891Z,49.03
2023-08-12T20:16:14.837Z,48.97
2023-08-12T20:18:43.550Z,49.19
2023-08-12T20:21:11.162Z,49.28
2023-08-12T20:23:39.020Z,49.57
2023-08-12T20:26:07.230Z,50.15
2023-08-12T20:28:40.795Z,50.54
2023-08-12T20:31:08.430Z,51.35
2023-08-12T20:33:35.810Z,50.53
2023-08-12T20:36:04.064Z,51.48
2023-08-12T20:38:31.425Z,51.12
2023-08-12T20:40:58.731Z,51.23
2023-08-12T20:43:27.739Z,50.92
2023-08-12T20:45:55.130Z,50.58
2023-08-12T20:48:25.247Z,51.78
2023-08-12T20:50:52.694Z,51.89
2023-08-12T20:53:21.413Z,51.63
2023-08-12T20:55:53.079Z,51.44
2023-08-12T20:58:20.433Z,51.97
2023-08-12T21:00:47.751Z,51.95
2023-08-12T21:03:15.459Z,51.90
2023-08-12T21:05:42.962Z,51.45
2023-08-12T21:08:11.904Z,51.23
2023-08-12T21:10:39.949Z,51.65
2023-08-12T21:13:09.619Z,51.97
2023-08-12T21:15:37.542Z,51.07
2023-08-12T21:18:10.971Z,50.70
2023-08-12T21:20:40.422Z,52.01
2023-08-12T21:23:07.895Z,51.34
2023-08-12T21:25:35.599Z,51.83
2023-08-12T21:28:04.737Z,52.44
2023-08-12T21:30:34.339Z,51.84
2023-08-12T21:33:03.975Z,52.50
2023-08-12T21:35:31.363Z,52.51
2023-08-12T21:37:58.811Z,52.53
2023-08-12T21:40:26.309Z,53.82
2023-08-12T21:42:53.774Z,53.30
2023-08-12T21:45:21.593Z,53.56
2023-08-12T21:47:49.348Z,53.90
2023-08-12T21:50:16.952Z,53.87
2023-08-12T21:52:44.293Z,54.32
2023-08-12T21:55:14.899Z,55.82
2023-08-12T21:57:42.388Z,55.57
2023-08-12T22:00:13.297Z,56.49
2023-08-12T22:02:40.947Z,56.97
2023-08-12T22:05:08.768Z,56.58
2023-08-12T22:07:36.295Z,57.36
2023-08-12T22:10:05.621Z,56.49
2023-08-12T22:12:35.713Z,56.28
2023-08-12T22:15:03.341Z,56.02
2023-08-12T22:17:31.271Z,56.86
2023-08-12T22:19:58.648Z,57.89
2023-08-12T22:22:26.585Z,59.21
2023-08-12T22:24:54.767Z,58.64
2023-08-12T22:27:22.403Z,59.15
2023-08-12T22:29:51.106Z,59.39
2023-08-12T22:32:18.487Z,58.85
2023-08-12T22:34:45.855Z,57.81
2023-08-12T22:37:13.280Z,58.32
2023-08-12T22:39:40.704Z,59.27
2023-08-12T22:42:08.349Z,59.25
2023-08-12T22:44:35.820Z,59.54
2023-08-12T22:47:03.167Z,59.19
2023-08-12T22:49:30.716Z,59.53
2023-08-12T22:52:01.074Z,58.38
2023-08-12T22:54:28.538Z,59.79
2023-08-12T22:56:56.317Z,59.30
2023-08-12T22:59:23.765Z,60.62
2023-08-12T23:01:51.114Z,61.78
2023-08-12T23:04:18.597Z,63.14
2023-08-12T23:06:46.118Z,63.40
2023-08-12T23:09:13.736Z,63.57
2023-08-12T23:11:42.768Z,63.35
2023-08-12T23:14:10.185Z,64.67
2023-08-12T23:16:38.669Z,66.71
2023-08-12T23:19:06.171Z,66.19
2023-08-12T23:21:33.446Z,65.57
2023-08-12T23:24:00.922Z,65.42
2023-08-12T23:26:28.524Z,62.30
2023-08-12T23:28:55.963Z,61.88
2023-08-12T23:31:24.371Z,60.51
2023-08-12T23:33:51.842Z,61.89
2023-08-12T23:36:19.433Z,63.87
2023-08-12T23:38:46.886Z,64.29
2023-08-12T23:41:14.335Z,64.89
2023-08-12T23:43:41.684Z,65.62
2023-08-12T23:46:09.112Z,64.46
2023-08-12T23:48:36.486Z,65.52
2023-08-12T23:51:03.886Z,66.38
2023-08-12T23:53:31.300Z,67.24
2023-08-12T23:55:58.687Z,67.53
2023-08-12T23:58:26.099Z,68.55
